Time;durP1;ratioP1;P1;durP2;ratioP2;P2;SDS_P1;SDS_P2;PMS_P1;PMS_P2;Temp;Humidity;BMP_temperature;BMP_pressure;BME280_temperature;BME280_humidity;BME280_pressure;Samples;Min_cycle;Max_cycle;Signal;HPM_P1;HPM_P2
2021/10/30 00:01:59;;;;;;;5.97;5.47;;;16.10;81.90;;;;;;5072874;28;20992;-69
2021/10/30 00:04:26;;;;;;;6.50;5.63;;;16.10;81.90;;;;;;5073256;28;20429;-69
2021/10/30 00:06:53;;;;;;;7.93;5.60;;;16.10;81.80;;;;;;5073170;28;20452;-69
2021/10/30 00:09:19;;;;;;;9.73;5.63;;;16.10;81.70;;;;;;5073004;28;20479;-69
2021/10/30 00:11:46;;;;;;;6.70;6.00;;;16.00;81.60;;;;;;5073104;28;20461;-69
2021/10/30 00:14:13;;;;;;;7.83;6.10;;;16.00;81.50;;;;;;5073106;28;20449;-69
2021/10/30 00:16:39;;;;;;;7.27;5.83;;;16.00;81.40;;;;;;5072791;28;20447;-69
2021/10/30 00:19:08;;;;;;;10.30;7.97;;;16.00;81.40;;;;;;5073152;28;20424;-69
2021/10/30 00:21:34;;;;;;;8.83;8.03;;;16.00;81.30;;;;;;5072917;28;20465;-69
2021/10/30 00:24:01;;;;;;;10.50;7.80;;;15.90;80.80;;;;;;5073081;28;20448;-69
2021/10/30 00:26:28;;;;;;;11.33;9.07;;;15.90;80.60;;;;;;5072699;28;20884;-69
2021/10/30 00:28:55;;;;;;;13.73;8.13;;;15.90;80.60;;;;;;5072962;28;20803;-69
2021/10/30 00:31:21;;;;;;;9.20;8.00;;;15.90;80.30;;;;;;5076466;28;20483;-69
2021/10/30 00:33:48;;;;;;;9.23;7.57;;;15.80;79.90;;;;;;5076668;28;20447;-69
2021/10/30 00:36:16;;;;;;;10.17;7.63;;;15.80;79.80;;;;;;5076858;28;20444;-69
2021/10/30 00:38:43;;;;;;;9.13;7.83;;;15.80;79.60;;;;;;5076593;28;20444;-69
2021/10/30 00:41:10;;;;;;;12.67;8.43;;;15.70;79.40;;;;;;5076534;28;20461;-69
2021/10/30 00:43:37;;;;;;;9.70;8.33;;;15.70;79.20;;;;;;5076531;28;20474;-69
2021/10/30 00:46:04;;;;;;;14.20;8.47;;;15.70;78.90;;;;;;5076535;28;20786;-69
2021/10/30 00:48:30;;;;;;;11.77;8.43;;;15.70;78.80;;;;;;5076487;28;20444;-69
2021/10/30 00:50:59;;;;;;;8.40;7.33;;;15.60;78.70;;;;;;5076843;28;20484;-69
2021/10/30 00:53:31;;;;;;;10.60;7.87;;;15.60;78.70;;;;;;5076405;28;20433;-69
2021/10/30 00:56:00;;;;;;;7.77;6.97;;;15.60;78.70;;;;;;5076384;28;20433;-69
2021/10/30 00:58:28;;;;;;;7.57;6.87;;;15.60;78.60;;;;;;5076543;28;20440;-69
2021/10/30 01:00:55;;;;;;;7.90;7.10;;;15.50;78.30;;;;;;5076173;28;20811;-69
2021/10/30 01:03:23;;;;;;;9.90;8.47;;;15.50;78.30;;;;;;5076224;28;20821;-69
2021/10/30 01:05:50;;;;;;;8.77;7.27;;;15.50;78.20;;;;;;5076172;28;20453;-69
2021/10/30 01:08:18;;;;;;;9.43;7.57;;;15.40;77.90;;;;;;5075799;28;20955;-69
2021/10/30 01:10:46;;;;;;;8.87;7.97;;;15.40;77.80;;;;;;5075895;28;20488;-69
2021/10/30 01:13:13;;;;;;;7.93;7.13;;;15.40;77.70;;;;;;5076039;28;20452;-69
2021/10/30 01:15:40;;;;;;;8.03;7.20;;;15.30;77.80;;;;;;5075977;28;20440;-69
2021/10/30 01:18:07;;;;;;;8.83;7.83;;;15.30;78.10;;;;;;5075849;28;20833;-69
2021/10/30 01:20:35;;;;;;;11.57;8.00;;;15.30;78.20;;;;;;5075487;28;20977;-69
2021/10/30 01:23:03;;;;;;;8.60;7.50;;;15.20;77.10;;;;;;5075874;28;20444;-69
2021/10/30 01:25:30;;;;;;;10.10;8.00;;;15.10;77.00;;;;;;5075512;28;20452;-69
2021/10/30 01:27:59;;;;;;;11.20;7.60;;;15.00;77.70;;;;;;5075734;28;20441;-69
2021/10/30 01:30:26;;;;;;;9.50;8.30;;;15.00;77.40;;;;;;5075248;28;20489;-69
2021/10/30 01:32:57;;;;;;;9.57;7.80;;;15.00;77.50;;;;;;5075670;28;20441;-69
2021/10/30 01:35:29;;;;;;;9.30;7.30;;;14.90;77.70;;;;;;5075604;28;20444;-69
2021/10/30 01:37:58;;;;;;;10.03;7.80;;;14.90;78.40;;;;;;5075502;28;20440;-69
2021/10/30 01:40:25;;;;;;;10.63;7.30;;;14.90;78.40;;;;;;5075013;28;20819;-69
2021/10/30 01:43:00;;;;;;;9.90;8.40;;;14.80;78.60;;;;;;5075464;28;20445;-69
2021/10/30 01:45:27;;;;;;;7.93;7.07;;;14.80;78.50;;;;;;5075108;28;20428;-69
2021/10/30 01:47:54;;;;;;;14.77;7.93;;;14.80;78.40;;;;;;5075347;28;20448;-69
2021/10/30 01:50:22;;;;;;;7.83;7.00;;;14.90;78.00;;;;;;5075197;28;20483;-69
2021/10/30 01:52:50;;;;;;;8.60;6.80;;;14.90;78.00;;;;;;5075227;28;20441;-69
2021/10/30 01:55:19;;;;;;;8.57;7.43;;;14.80;78.40;;;;;;5075161;28;20532;-69
2021/10/30 01:57:47;;;;;;;8.03;7.23;;;14.80;78.40;;;;;;5075222;28;20463;-69
2021/10/30 02:00:15;;;;;;;8.50;6.70;;;14.90;78.90;;;;;;5074801;28;20927;-70
2021/10/30 02:02:42;;;;;;;10.00;7.63;;;14.90;79.10;;;;;;5074708;28;21003;-69
2021/10/30 02:05:10;;;;;;;7.30;6.60;;;14.90;78.90;;;;;;5075005;28;20490;-69
2021/10/30 02:07:36;;;;;;;8.30;6.60;;;14.90;78.60;;;;;;5074945;28;20440;-69
2021/10/30 02:10:05;;;;;;;8.00;6.90;;;14.90;78.60;;;;;;5074985;28;20472;-69
2021/10/30 02:12:33;;;;;;;8.30;6.80;;;14.90;78.80;;;;;;5074785;28;20441;-69
2021/10/30 02:15:00;;;;;;;7.50;6.83;;;14.90;78.90;;;;;;5074826;28;20440;-69
2021/10/30 02:17:27;;;;;;;8.20;6.53;;;14.90;78.80;;;;;;5074757;28;20467;-69
2021/10/30 02:19:53;;;;;;;7.57;6.83;;;14.90;78.90;;;;;;5074651;28;20448;-69
2021/10/30 02:22:20;;;;;;;8.23;7.43;;;14.90;78.90;;;;;;5074607;28;20468;-69
2021/10/30 02:24:47;;;;;;;7.23;6.50;;;15.00;79.10;;;;;;5074822;28;20444;-69
2021/10/30 02:27:14;;;;;;;8.57;7.70;;;14.90;78.90;;;;;;5074594;28;20556;-69
2021/10/30 02:29:42;;;;;;;7.60;6.90;;;14.90;78.80;;;;;;5074417;28;20465;-69
2021/10/30 02:32:09;;;;;;;8.50;7.13;;;14.90;78.60;;;;;;5074382;28;20464;-69
2021/10/30 02:34:36;;;;;;;9.30;7.30;;;14.90;78.70;;;;;;5074381;28;20449;-69
2021/10/30 02:37:04;;;;;;;8.57;7.67;;;14.90;78.60;;;;;;5074351;28;20451;-69
2021/10/30 02:39:30;;;;;;;8.27;7.10;;;14.90;78.50;;;;;;5074295;28;20813;-69
2021/10/30 02:41:57;;;;;;;7.93;7.20;;;14.90;78.10;;;;;;5074284;28;20468;-69
2021/10/30 02:44:24;;;;;;;7.60;6.70;;;14.80;78.00;;;;;;5074346;28;20445;-69
2021/10/30 02:46:52;;;;;;;13.23;8.10;;;14.80;78.30;;;;;;5074707;28;20449;-69
2021/10/30 02:49:19;;;;;;;8.10;7.20;;;14.80;77.70;;;;;;5074110;28;20441;-69
2021/10/30 02:51:46;;;;;;;8.20;6.73;;;14.80;78.00;;;;;;5073961;28;20488;-69
2021/10/30 02:54:12;;;;;;;7.37;6.57;;;14.80;78.10;;;;;;5074113;28;20873;-69
2021/10/30 02:56:39;;;;;;;7.80;7.00;;;14.70;77.90;;;;;;5074084;28;20449;-69
2021/10/30 02:59:06;;;;;;;7.80;7.10;;;14.70;77.80;;;;;;5074213;28;20440;-69
2021/10/30 03:01:33;;;;;;;8.50;7.60;;;14.70;77.70;;;;;;5073853;28;20461;-69
2021/10/30 03:04:01;;;;;;;8.37;7.07;;;14.70;78.00;;;;;;5073906;28;20957;-69
2021/10/30 03:06:28;;;;;;;8.20;7.30;;;14.70;78.40;;;;;;5073848;28;20449;-69
2021/10/30 03:08:54;;;;;;;9.97;7.20;;;14.60;77.60;;;;;;5073815;28;20447;-69
2021/10/30 03:11:21;;;;;;;11.03;6.87;;;14.60;77.40;;;;;;5073624;28;20885;-69
2021/10/30 03:13:48;;;;;;;12.40;6.53;;;14.60;77.70;;;;;;5073458;28;20813;-69
2021/10/30 03:16:15;;;;;;;11.33;6.90;;;14.60;78.00;;;;;;5073708;28;20448;-69
2021/10/30 03:18:41;;;;;;;8.03;7.07;;;14.60;78.20;;;;;;5073668;28;20451;-69
2021/10/30 03:21:10;;;;;;;7.30;6.57;;;14.60;78.10;;;;;;5073636;28;20460;-69
2021/10/30 03:23:37;;;;;;;9.10;7.27;;;14.50;78.60;;;;;;5073636;28;20445;-69
2021/10/30 03:26:04;;;;;;;12.10;6.20;;;14.50;78.90;;;;;;5073704;28;20441;-69
2021/10/30 03:28:30;;;;;;;7.00;6.30;;;14.50;79.00;;;;;;5073673;28;20428;-69
2021/10/30 03:30:57;;;;;;;11.40;7.47;;;14.40;79.10;;;;;;5073277;28;20945;-69
2021/10/30 03:33:24;;;;;;;9.80;7.33;;;14.40;79.70;;;;;;5073209;28;20953;-69
2021/10/30 03:35:51;;;;;;;7.30;6.60;;;14.30;80.10;;;;;;5073512;28;20452;-69
2021/10/30 03:38:19;;;;;;;7.80;6.80;;;14.30;80.50;;;;;;5073510;28;20441;-69
2021/10/30 03:40:45;;;;;;;8.30;7.50;;;14.20;80.40;;;;;;5073402;28;20464;-70
2021/10/30 03:43:12;;;;;;;7.00;6.30;;;14.20;80.90;;;;;;5073825;28;20903;-70
2021/10/30 03:45:39;;;;;;;11.20;7.60;;;14.20;81.80;;;;;;5073430;28;20806;-70
2021/10/30 03:48:08;;;;;;;8.17;6.60;;;14.30;82.30;;;;;;5073426;28;20444;-70
2021/10/30 03:50:35;;;;;;;9.27;7.40;;;14.30;83.10;;;;;;5073262;28;20480;-70
2021/10/30 03:53:02;;;;;;;7.50;6.70;;;14.30;83.60;;;;;;5073384;28;20447;-70
2021/10/30 03:55:30;;;;;;;10.30;6.80;;;14.30;83.80;;;;;;5073361;28;20859;-70
2021/10/30 03:57:57;;;;;;;8.40;6.77;;;14.30;84.20;;;;;;5073038;28;20975;-70
2021/10/30 04:00:24;;;;;;;7.50;6.60;;;14.30;84.70;;;;;;5073234;28;20837;-70
2021/10/30 04:02:51;;;;;;;10.90;7.83;;;14.30;85.00;;;;;;5073282;28;20429;-70
2021/10/30 04:05:18;;;;;;;10.13;6.70;;;14.40;85.30;;;;;;5077158;28;20463;-70
2021/10/30 04:07:45;;;;;;;7.97;7.17;;;14.30;85.40;;;;;;5076960;28;20957;-70
2021/10/30 04:10:11;;;;;;;9.97;7.60;;;14.40;85.70;;;;;;5077105;28;20444;-70
2021/10/30 04:12:40;;;;;;;8.47;7.33;;;14.30;85.80;;;;;;5077199;28;20444;-70
2021/10/30 04:15:08;;;;;;;10.53;7.40;;;14.30;85.90;;;;;;5077142;28;20810;-70
2021/10/30 04:17:35;;;;;;;9.30;7.93;;;14.30;86.20;;;;;;5077128;28;20444;-70
2021/10/30 04:20:02;;;;;;;9.40;6.87;;;14.30;86.40;;;;;;5077046;28;20448;-70
2021/10/30 04:22:29;;;;;;;9.00;7.60;;;14.30;86.60;;;;;;5076984;28;20809;-70
2021/10/30 04:24:57;;;;;;;10.93;7.20;;;14.30;86.80;;;;;;5076623;28;20440;-70
2021/10/30 04:27:24;;;;;;;13.10;7.30;;;14.30;86.90;;;;;;5076964;28;20494;-70
2021/10/30 04:29:52;;;;;;;8.90;8.00;;;14.30;87.00;;;;;;5076310;28;20946;-70
2021/10/30 04:32:18;;;;;;;9.10;7.43;;;14.30;87.40;;;;;;5076667;28;20495;-70
2021/10/30 04:34:47;;;;;;;8.73;6.70;;;14.30;87.70;;;;;;5076779;28;20443;-70
2021/10/30 04:37:16;;;;;;;14.20;8.07;;;14.30;87.80;;;;;;5076677;28;20837;-70
2021/10/30 04:39:43;;;;;;;11.77;7.30;;;14.30;88.00;;;;;;5076332;28;20922;-70
2021/10/30 04:42:10;;;;;;;8.00;7.20;;;14.30;88.10;;;;;;5076565;28;20456;-70
2021/10/30 04:44:37;;;;;;;9.80;7.70;;;14.30;88.30;;;;;;5076303;28;20934;-70
2021/10/30 04:47:06;;;;;;;8.77;7.00;;;14.30;88.30;;;;;;5076607;28;20428;-70
2021/10/30 04:49:35;;;;;;;9.20;8.00;;;14.30;88.40;;;;;;5076542;28;20497;-70
2021/10/30 04:52:02;;;;;;;10.00;7.00;;;14.30;88.30;;;;;;5076543;28;20488;-70
2021/10/30 04:54:28;;;;;;;10.50;7.93;;;14.30;88.50;;;;;;5076099;28;20950;-70
2021/10/30 04:56:55;;;;;;;11.43;9.00;;;14.30;88.40;;;;;;5076342;28;20475;-70
2021/10/30 04:59:22;;;;;;;15.40;7.77;;;14.20;88.50;;;;;;5075996;28;20964;-69
2021/10/30 05:01:49;;;;;;;16.20;8.37;;;14.20;88.60;;;;;;5076150;28;20465;-69
2021/10/30 05:04:17;;;;;;;12.23;7.70;;;14.20;88.70;;;;;;5076217;28;20451;-69
2021/10/30 05:06:44;;;;;;;10.53;7.90;;;14.20;88.70;;;;;;5076205;28;20797;-69
2021/10/30 05:09:11;;;;;;;8.87;7.97;;;14.20;88.70;;;;;;5076163;28;20441;-69
2021/10/30 05:11:38;;;;;;;9.80;8.83;;;14.20;88.80;;;;;;5075615;28;20897;-69
2021/10/30 05:14:04;;;;;;;9.33;8.00;;;14.20;88.90;;;;;;5076056;28;20868;-69
2021/10/30 05:16:31;;;;;;;10.03;8.23;;;14.10;89.00;;;;;;5075146;28;20448;-69
2021/10/30 05:18:58;;;;;;;11.60;8.20;;;14.20;89.00;;;;;;5075960;28;20451;-69
2021/10/30 05:21:26;;;;;;;8.83;7.77;;;14.10;89.00;;;;;;5075878;28;20457;-69
2021/10/30 05:23:55;;;;;;;11.50;8.10;;;14.10;89.00;;;;;;5075904;28;20441;-69
2021/10/30 05:26:22;;;;;;;10.00;8.23;;;14.10;89.10;;;;;;5076081;28;20448;-69
2021/10/30 05:28:49;;;;;;;9.13;6.83;;;14.10;89.30;;;;;;5075457;28;21013;-69
2021/10/30 05:31:15;;;;;;;10.90;8.67;;;14.10;89.30;;;;;;5075152;28;20533;-70
2021/10/30 05:33:42;;;;;;;8.27;6.87;;;14.10;89.30;;;;;;5075387;28;20822;-70
2021/10/30 05:36:11;;;;;;;8.80;7.50;;;14.10;89.30;;;;;;5075605;28;20448;-70
2021/10/30 05:38:44;;;;;;;11.17;7.47;;;14.10;89.50;;;;;;5076101;28;20456;-70
2021/10/30 05:41:11;;;;;;;10.17;6.93;;;14.10;89.60;;;;;;5075521;28;20461;-70
2021/10/30 05:43:39;;;;;;;9.00;6.40;;;14.10;89.50;;;;;;5075530;28;20448;-70
2021/10/30 05:46:06;;;;;;;10.07;8.40;;;14.10;89.60;;;;;;5075112;28;20445;-70
2021/10/30 05:48:33;;;;;;;7.80;7.10;;;14.10;89.70;;;;;;5075405;28;20441;-70
2021/10/30 05:51:00;;;;;;;9.30;7.30;;;14.10;89.90;;;;;;5075492;28;20491;-70
2021/10/30 05:53:27;;;;;;;8.80;7.90;;;14.10;89.80;;;;;;5075289;28;20445;-70
2021/10/30 05:55:55;;;;;;;8.47;7.07;;;14.10;90.00;;;;;;5075245;28;20835;-70
2021/10/30 05:58:22;;;;;;;10.50;7.97;;;14.10;90.00;;;;;;5074915;28;20947;-69
2021/10/30 06:00:48;;;;;;;11.60;7.73;;;14.10;90.10;;;;;;5075185;28;20542;-70
2021/10/30 06:03:15;;;;;;;8.53;6.50;;;14.10;90.10;;;;;;5074826;28;20938;-70
2021/10/30 06:05:42;;;;;;;8.37;7.37;;;14.00;90.10;;;;;;5074898;28;20452;-70
2021/10/30 06:08:09;;;;;;;8.70;6.57;;;14.00;90.20;;;;;;5075035;28;20437;-70
2021/10/30 06:10:35;;;;;;;11.37;7.33;;;14.00;90.20;;;;;;5075750;28;20483;-70
2021/10/30 06:13:04;;;;;;;7.27;6.50;;;14.10;90.20;;;;;;5076310;28;20891;-70
2021/10/30 06:15:31;;;;;;;9.10;6.60;;;14.10;90.30;;;;;;5076215;28;20787;-70
2021/10/30 06:17:57;;;;;;;8.60;7.50;;;14.00;90.20;;;;;;5074763;28;20460;-69
2021/10/30 06:20:24;;;;;;;9.60;6.80;;;14.00;90.30;;;;;;5074760;28;20469;-70
2021/10/30 06:22:51;;;;;;;7.63;6.83;;;14.00;90.30;;;;;;5074666;28;20444;-70
2021/10/30 06:25:18;;;;;;;9.47;6.60;;;14.00;90.30;;;;;;5074707;28;20433;-70
2021/10/30 06:27:45;;;;;;;7.53;5.80;;;14.00;90.40;;;;;;5074904;28;20475;-69
2021/10/30 06:30:14;;;;;;;6.43;5.80;;;14.00;90.40;;;;;;5074459;28;20452;-70
2021/10/30 06:32:41;;;;;;;7.40;6.27;;;14.00;90.40;;;;;;5074388;28;21032;-70
2021/10/30 06:35:09;;;;;;;7.40;5.20;;;14.00;90.40;;;;;;5074499;28;20435;-70
2021/10/30 06:37:38;;;;;;;5.90;5.30;;;14.00;90.30;;;;;;5074054;28;20451;-70
2021/10/30 06:40:07;;;;;;;6.17;5.33;;;14.00;90.50;;;;;;5074276;28;20452;-70
2021/10/30 06:42:33;;;;;;;12.13;5.13;;;13.90;90.60;;;;;;5073997;28;20436;-69
2021/10/30 06:45:00;;;;;;;6.27;5.50;;;13.90;90.80;;;;;;5074402;28;20425;-70
2021/10/30 06:47:28;;;;;;;6.93;5.23;;;13.80;90.90;;;;;;5074491;28;20483;-70
2021/10/30 06:49:57;;;;;;;5.53;4.70;;;13.80;91.00;;;;;;5074209;28;20501;-69
2021/10/30 06:52:24;;;;;;;6.00;4.97;;;13.80;91.10;;;;;;5073993;28;20525;-69
2021/10/30 06:54:51;;;;;;;6.90;4.57;;;13.70;91.20;;;;;;5074110;28;20514;-69
2021/10/30 06:57:19;;;;;;;4.73;4.23;;;13.80;91.30;;;;;;5074094;28;20804;-69
2021/10/30 06:59:46;;;;;;;7.10;4.60;;;13.80;91.30;;;;;;5074025;28;20440;-68
2021/10/30 07:02:13;;;;;;;17.20;4.87;;;13.80;91.20;;;;;;5073928;28;20476;-69
2021/10/30 07:04:41;;;;;;;6.80;5.30;;;13.80;91.30;;;;;;5073900;28;20447;-69
2021/10/30 07:07:08;;;;;;;5.00;4.33;;;13.80;91.30;;;;;;5073878;28;20444;-69
2021/10/30 07:09:34;;;;;;;4.70;4.30;;;13.80;91.30;;;;;;5073511;28;20954;-69
2021/10/30 07:12:01;;;;;;;7.73;4.73;;;13.80;91.30;;;;;;5073759;28;20840;-69
2021/10/30 07:14:28;;;;;;;4.67;4.20;;;13.90;91.30;;;;;;5073800;28;20445;-69
2021/10/30 07:16:55;;;;;;;6.03;3.30;;;13.90;91.40;;;;;;5074521;28;20452;-69
2021/10/30 07:19:21;;;;;;;5.13;4.03;;;13.90;91.40;;;;;;5074841;28;20440;-69
2021/10/30 07:21:49;;;;;;;8.33;3.77;;;14.00;91.40;;;;;;5073895;28;20460;-69
2021/10/30 07:24:16;;;;;;;4.23;3.70;;;14.00;91.30;;;;;;5073897;28;20456;-69
2021/10/30 07:26:43;;;;;;;3.90;3.50;;;14.00;91.30;;;;;;5073646;28;20440;-69
2021/10/30 07:29:10;;;;;;;5.27;3.53;;;14.00;91.20;;;;;;5073442;28;20448;-68
2021/10/30 07:31:36;;;;;;;2.93;2.63;;;14.00;91.10;;;;;;5073476;28;20826;-68
2021/10/30 07:34:03;;;;;;;4.13;3.83;;;14.10;91.10;;;;;;5073584;28;20429;-69
2021/10/30 07:36:30;;;;;;;6.97;3.67;;;14.10;91.00;;;;;;5073572;28;20451;-69
2021/10/30 07:38:58;;;;;;;3.40;3.17;;;14.10;91.00;;;;;;5072745;28;20455;-69
2021/10/30 07:41:25;;;;;;;5.10;4.60;;;14.20;91.20;;;;;;5073473;28;20465;-69
2021/10/30 07:43:54;;;;;;;5.67;4.77;;;14.20;91.30;;;;;;5073488;28;20448;-69
2021/10/30 07:46:21;;;;;;;6.10;5.50;;;14.30;91.40;;;;;;5073416;28;20535;-69
2021/10/30 07:48:48;;;;;;;9.97;5.80;;;14.30;91.40;;;;;;5073484;28;20444;-69
2021/10/30 07:51:14;;;;;;;7.80;5.20;;;14.30;91.30;;;;;;5073244;28;20468;-69
2021/10/30 07:53:41;;;;;;;9.57;5.93;;;14.40;91.20;;;;;;5073363;28;20445;-69
2021/10/30 07:56:09;;;;;;;10.10;5.50;;;14.40;91.10;;;;;;5073340;28;20448;-69
2021/10/30 07:58:36;;;;;;;6.43;5.80;;;14.40;91.00;;;;;;5073399;28;20436;-69
2021/10/30 08:01:03;;;;;;;6.07;5.50;;;14.40;91.00;;;;;;5073206;28;20479;-69
2021/10/30 08:03:29;;;;;;;11.00;5.70;;;14.40;90.90;;;;;;5072936;28;20433;-69
2021/10/30 08:05:56;;;;;;;7.73;5.80;;;14.50;90.80;;;;;;5073128;28;20467;-69
2021/10/30 08:08:23;;;;;;;7.67;5.40;;;14.50;90.60;;;;;;5073250;28;20447;-69
2021/10/30 08:10:50;;;;;;;6.10;4.93;;;14.50;90.50;;;;;;5073171;28;20457;-69
2021/10/30 08:13:18;;;;;;;10.47;7.10;;;14.50;90.40;;;;;;5073106;28;20480;-69
2021/10/30 08:15:45;;;;;;;7.17;6.43;;;14.50;90.30;;;;;;5073161;28;20444;-68
2021/10/30 08:18:11;;;;;;;7.07;6.10;;;14.50;90.20;;;;;;5073415;28;20437;-68
2021/10/30 08:20:38;;;;;;;7.63;5.50;;;14.50;90.10;;;;;;5073111;28;20467;-69
2021/10/30 08:23:05;;;;;;;6.43;5.57;;;14.50;89.80;;;;;;5073129;28;20448;-69
2021/10/30 08:25:32;;;;;;;5.20;4.33;;;14.50;89.20;;;;;;5072974;28;20444;-69
2021/10/30 08:27:59;;;;;;;5.40;4.60;;;14.50;88.90;;;;;;5072708;28;20444;-69
2021/10/30 08:30:27;;;;;;;6.77;4.13;;;14.50;89.40;;;;;;5072648;28;20570;-69
2021/10/30 08:32:54;;;;;;;4.47;3.93;;;14.40;89.90;;;;;;5072970;28;21012;-69
2021/10/30 08:35:21;;;;;;;5.80;4.40;;;14.30;90.30;;;;;;5073024;28;20433;-69
2021/10/30 08:37:48;;;;;;;5.40;4.47;;;14.30;90.60;;;;;;5072684;28;20456;-69
2021/10/30 08:40:17;;;;;;;4.73;4.30;;;14.30;90.90;;;;;;5073094;28;20451;-69
2021/10/30 08:42:47;;;;;;;4.40;3.60;;;14.30;91.10;;;;;;5072798;28;20934;-69
2021/10/30 08:45:13;;;;;;;4.83;3.73;;;14.30;91.30;;;;;;5072335;28;20440;-69
2021/10/30 08:47:43;;;;;;;5.53;4.03;;;14.20;91.30;;;;;;5072180;28;20453;-69
2021/10/30 08:50:10;;;;;;;3.60;3.30;;;14.20;91.40;;;;;;5073128;28;20448;-69
2021/10/30 08:52:38;;;;;;;5.97;3.80;;;14.30;91.70;;;;;;5076035;28;20476;-70
2021/10/30 08:55:06;;;;;;;3.57;3.23;;;14.20;91.90;;;;;;5076411;28;20467;-69
2021/10/30 08:57:33;;;;;;;4.57;3.27;;;14.30;92.00;;;;;;5076374;28;20440;-69
2021/10/30 09:00:16;;;;;;;5.87;3.17;;;14.30;92.40;;;;;;5076306;28;20456;-69
2021/10/30 09:02:44;;;;;;;3.00;2.70;;;14.20;92.70;;;;;;5076295;28;20420;-69
2021/10/30 09:05:16;;;;;;;3.27;2.97;;;14.10;92.90;;;;;;5076139;28;20445;-69
2021/10/30 09:07:43;;;;;;;3.20;2.90;;;14.10;93.10;;;;;;5075927;28;20516;-69
2021/10/30 09:10:13;;;;;;;3.60;3.30;;;14.10;93.70;;;;;;5075722;28;20506;-70
2021/10/30 09:12:47;;;;;;;3.10;2.83;;;14.10;93.60;;;;;;5075659;28;20472;-68
2021/10/30 09:15:19;;;;;;;5.80;3.00;;;14.10;93.40;;;;;;5076464;28;20884;-72
2021/10/30 09:17:48;;;;;;;2.73;2.53;;;14.20;93.80;;;;;;5075790;28;20804;-68
2021/10/30 09:20:16;;;;;;;4.10;2.10;;;14.20;93.90;;;;;;5075928;28;20437;-69
2021/10/30 09:22:54;;;;;;;3.17;2.40;;;14.30;93.70;;;;;;5075607;28;20966;-68
2021/10/30 09:25:21;;;;;;;2.60;2.40;;;14.30;93.70;;;;;;5075932;28;20436;-68
2021/10/30 09:27:54;;;;;;;2.80;2.50;;;14.30;93.80;;;;;;5075892;28;20440;-68
2021/10/30 09:38:27;;;;;;;2.40;2.00;;;14.50;93.80;;;;;;5063441;22;20517;-85
2021/10/30 09:40:53;;;;;;;2.83;2.63;;;14.50;93.60;;;;;;5059682;28;20477;-85
2021/10/30 09:43:22;;;;;;;3.27;2.47;;;14.50;93.80;;;;;;5059525;28;20449;-85
2021/10/30 09:45:52;;;;;;;2.20;2.00;;;14.60;93.50;;;;;;5058578;28;20445;-85
2021/10/30 09:48:23;;;;;;;2.40;2.07;;;14.60;93.50;;;;;;5058953;28;20442;-85
2021/10/30 09:50:51;;;;;;;3.67;2.40;;;14.60;93.60;;;;;;5059454;28;20911;-85
2021/10/30 09:53:35;;;;;;;2.50;2.10;;;14.70;93.60;;;;;;5059199;28;20486;-85
2021/10/30 09:56:04;;;;;;;2.63;1.70;;;14.70;93.50;;;;;;5059403;28;20501;-88
2021/10/30 09:58:33;;;;;;;2.97;2.20;;;14.60;93.40;;;;;;5060493;28;20434;-87
2021/10/30 10:01:01;;;;;;;2.40;2.20;;;14.70;93.60;;;;;;5059900;28;20457;-87
2021/10/30 10:03:33;;;;;;;2.33;2.13;;;14.70;93.60;;;;;;5060284;28;20450;-87
2021/10/30 10:06:03;;;;;;;2.50;2.30;;;14.70;93.50;;;;;;5060593;28;20417;-86
2021/10/30 10:08:31;;;;;;;2.47;1.90;;;14.80;93.60;;;;;;5060109;28;20516;-87
2021/10/30 10:11:00;;;;;;;3.57;2.40;;;14.90;93.50;;;;;;5059846;28;20469;-87
2021/10/30 10:13:27;;;;;;;2.53;1.97;;;14.70;93.60;;;;;;5057504;28;20510;-87
2021/10/30 10:15:54;;;;;;;2.03;1.83;;;14.80;93.70;;;;;;5058293;28;20791;-87
2021/10/30 10:18:22;;;;;;;2.37;1.80;;;14.70;93.40;;;;;;5058085;28;20831;-87
2021/10/30 10:20:51;;;;;;;2.07;1.87;;;14.80;93.80;;;;;;5061146;28;20445;-87
2021/10/30 10:23:20;;;;;;;2.20;1.67;;;14.80;93.80;;;;;;5062242;28;20879;-87
2021/10/30 10:25:55;;;;;;;3.70;2.03;;;14.80;93.60;;;;;;5061659;28;20464;-87
2021/10/30 10:28:27;;;;;;;2.10;1.90;;;14.80;93.70;;;;;;5061884;28;20473;-87
2021/10/30 10:30:56;;;;;;;1.90;1.70;;;14.90;93.80;;;;;;5061399;28;20449;-87
2021/10/30 10:33:24;;;;;;;3.87;2.07;;;14.90;93.80;;;;;;5062972;28;20477;-87
2021/10/30 10:36:27;;;;;;;5.53;2.40;;;14.90;93.80;;;;;;5062951;28;20445;-87
2021/10/30 10:39:23;;;;;;;4.20;2.80;;;15.00;93.60;;;;;;5061404;28;20440;-87
2021/10/30 10:41:56;;;;;;;4.33;2.13;;;15.00;93.30;;;;;;5062869;28;20476;-87
2021/10/30 10:45:00;;;;;;;2.40;1.87;;;15.00;93.10;;;;;;5060538;28;20422;-87
2021/10/30 10:47:55;;;;;;;2.47;2.10;;;15.00;92.90;;;;;;5059294;28;20438;-87
2021/10/30 10:50:28;;;;;;;3.63;1.90;;;15.10;92.60;;;;;;5062122;28;20434;-85
2021/10/30 10:53:21;;;;;;;2.63;2.17;;;15.10;92.50;;;;;;5066372;28;20490;-85
2021/10/30 10:56:11;;;;;;;2.63;2.13;;;15.10;92.50;;;;;;5066597;28;20490;-85
2021/10/30 10:59:17;;;;;;;2.83;2.10;;;15.10;92.20;;;;;;5061028;28;20528;-85
2021/10/30 11:02:19;;;;;;;3.97;1.97;;;15.00;92.20;;;;;;5059511;28;20477;-85
2021/10/30 11:05:26;;;;;;;3.87;2.40;;;15.00;92.50;;;;;;5059554;28;20426;-85
2021/10/30 11:08:25;;;;;;;3.97;2.50;;;14.90;92.30;;;;;;5060073;28;20425;-85
2021/10/30 11:11:13;;;;;;;3.53;2.30;;;15.00;92.20;;;;;;5059608;28;20470;-85
2021/10/30 11:13:50;;;;;;;2.50;2.27;;;15.00;92.00;;;;;;5059173;28;20476;-85
2021/10/30 11:16:25;;;;;;;3.80;3.33;;;15.00;92.50;;;;;;5058992;28;20432;-86
2021/10/30 11:19:18;;;;;;;5.57;3.80;;;14.90;91.90;;;;;;5057999;28;20941;-85
2021/10/30 11:21:47;;;;;;;3.87;3.57;;;14.90;92.10;;;;;;5058371;28;20480;-85
2021/10/30 11:24:21;;;;;;;5.30;3.20;;;14.90;91.90;;;;;;5055579;28;20446;-86
2021/10/30 11:27:06;;;;;;;5.37;3.30;;;14.90;91.90;;;;;;5054884;28;20422;-85
2021/10/30 11:29:34;;;;;;;3.70;3.20;;;14.90;91.70;;;;;;5054969;28;20434;-86
2021/10/30 11:32:05;;;;;;;3.43;2.80;;;14.90;91.50;;;;;;5055282;28;20453;-85
2021/10/30 11:34:34;;;;;;;3.60;3.30;;;14.80;91.70;;;;;;5057043;28;20489;-85
2021/10/30 11:37:00;;;;;;;3.33;3.03;;;14.70;91.70;;;;;;5055603;28;20466;-85
2021/10/30 11:39:30;;;;;;;3.40;2.77;;;14.70;91.70;;;;;;5054744;28;20461;-85
2021/10/30 11:41:56;;;;;;;3.17;2.60;;;14.70;91.70;;;;;;5055922;28;20450;-87
2021/10/30 11:44:24;;;;;;;3.07;2.63;;;14.70;91.80;;;;;;5057394;28;20449;-87
2021/10/30 11:46:54;;;;;;;3.07;2.63;;;14.70;91.90;;;;;;5058557;28;20859;-87
2021/10/30 11:49:27;;;;;;;3.70;2.40;;;14.70;91.60;;;;;;5057070;28;20452;-87
2021/10/30 11:52:01;;;;;;;4.70;3.03;;;14.60;91.90;;;;;;5056784;28;20461;-86
2021/10/30 11:54:28;;;;;;;3.63;3.00;;;14.70;92.10;;;;;;5056940;28;20477;-86
2021/10/30 11:56:55;;;;;;;2.90;2.53;;;14.80;92.00;;;;;;5057279;28;20445;-87
2021/10/30 11:59:22;;;;;;;4.93;3.20;;;14.80;92.00;;;;;;5057464;28;20540;-86
2021/10/30 12:01:49;;;;;;;5.07;2.83;;;14.80;92.10;;;;;;5056380;28;20474;-87
2021/10/30 12:04:20;;;;;;;5.17;2.70;;;14.90;91.80;;;;;;5056357;28;20452;-87
2021/10/30 12:06:50;;;;;;;3.63;3.33;;;14.90;91.90;;;;;;5056469;28;20782;-86
2021/10/30 12:09:22;;;;;;;3.60;2.70;;;14.90;91.70;;;;;;5056391;28;20899;-86
2021/10/30 12:11:51;;;;;;;5.43;3.60;;;14.90;91.70;;;;;;5054541;28;20469;-86
2021/10/30 12:14:23;;;;;;;3.30;2.67;;;14.90;91.80;;;;;;5054769;28;20481;-87
2021/10/30 12:16:51;;;;;;;3.93;2.43;;;14.90;91.80;;;;;;5056472;28;20457;-87
2021/10/30 12:19:25;;;;;;;2.87;2.53;;;14.90;91.50;;;;;;5057386;28;20495;-87
2021/10/30 12:22:02;;;;;;;3.20;2.60;;;14.90;91.40;;;;;;5058990;28;20959;-87
2021/10/30 12:24:29;;;;;;;6.57;3.00;;;14.90;91.60;;;;;;5089875;22;20487;-72
2021/10/30 12:26:58;;;;;;;3.73;2.40;;;15.00;91.60;;;;;;5076807;28;20468;-73
2021/10/30 12:29:27;;;;;;;2.60;2.40;;;15.00;91.20;;;;;;5076958;28;20437;-73
2021/10/30 12:32:05;;;;;;;5.87;2.70;;;15.00;91.30;;;;;;5076606;28;20551;-73
2021/10/30 12:34:37;;;;;;;4.60;3.10;;;15.10;91.40;;;;;;5076786;28;20464;-73
2021/10/30 12:37:06;;;;;;;3.20;2.43;;;15.20;91.20;;;;;;5076737;28;20464;-73
2021/10/30 12:39:34;;;;;;;3.93;2.60;;;15.20;90.80;;;;;;5077291;28;20444;-73
2021/10/30 12:42:04;;;;;;;5.30;3.43;;;15.20;90.80;;;;;;5076583;28;20441;-73
2021/10/30 12:44:32;;;;;;;6.00;3.70;;;15.20;91.00;;;;;;5076550;28;20448;-73
2021/10/30 12:47:02;;;;;;;8.40;3.00;;;15.20;90.80;;;;;;5076151;28;20472;-74
2021/10/30 12:49:33;;;;;;;4.27;3.07;;;15.30;90.90;;;;;;5076624;28;20433;-74
2021/10/30 12:52:06;;;;;;;4.10;2.87;;;15.30;90.60;;;;;;5076572;28;20458;-73
2021/10/30 12:54:33;;;;;;;2.93;2.33;;;15.30;90.80;;;;;;5076191;28;20465;-73
2021/10/30 12:57:00;;;;;;;3.80;2.90;;;15.30;90.50;;;;;;5076392;28;20464;-73
2021/10/30 12:59:41;;;;;;;4.77;2.77;;;15.30;90.60;;;;;;5076357;28;20451;-73
2021/10/30 13:02:08;;;;;;;3.13;2.50;;;15.40;90.80;;;;;;5076295;28;20439;-72
2021/10/30 13:04:40;;;;;;;3.60;2.20;;;15.40;90.40;;;;;;5076121;28;20448;-72